Terminal Aerodrome Forecast
Issued by NWS Northern Indiana

Home | Current Version | Previous Version | Text Only | Print | Product List | Glossary Off
Versions: 1 2 3 4 5 6 7 8 9 10 11 12 13 14 15 16 17

746
FTUS43 KIWX 271121
TAFFWA
TAF
KFWA 271121Z 2712/2812 21005KT P6SM SCT035
     FM280000 15005KT P6SM BKN060
     FM281100 15008KT P6SM OVC025=

USA.gov is the U.S. government's official web portal to all federal, state and local government web resources and services.